Time;durP1;ratioP1;P1;durP2;ratioP2;P2;SDS_P1;SDS_P2;PMS_P1;PMS_P2;Temp;Humidity;BMP_temperature;BMP_pressure;BME280_temperature;BME280_humidity;BME280_pressure;Samples;Min_cycle;Max_cycle;Signal;HPM_P1;HPM_P2
2021/11/13 00:01:29;;;;;;;59.00;34.90;;;6.60;99.90;;;;;;5072644;28;20443;-49
2021/11/13 00:03:59;;;;;;;56.27;36.47;;;6.50;99.90;;;;;;5072634;28;20513;-50
2021/11/13 00:06:26;;;;;;;52.23;35.40;;;6.30;99.90;;;;;;5072465;28;20474;-49
2021/11/13 00:08:54;;;;;;;57.17;36.30;;;6.90;99.90;;;;;;5073925;28;20944;-49
2021/11/13 00:11:22;;;;;;;58.93;35.03;;;6.80;99.90;;;;;;5071145;28;20451;-49
2021/11/13 00:13:52;;;;;;;57.20;34.67;;;6.30;99.90;;;;;;5072451;28;20455;-50
2021/11/13 00:16:19;;;;;;;56.03;35.83;;;6.70;99.90;;;;;;5072453;28;20435;-49
2021/11/13 00:18:47;;;;;;;56.80;35.93;;;6.70;99.90;;;;;;5072187;28;20940;-49
2021/11/13 00:21:15;;;;;;;58.20;37.03;;;6.60;99.90;;;;;;5069299;28;20535;-49
2021/11/13 00:23:41;;;;;;;55.37;34.70;;;6.60;99.90;;;;;;5052603;28;20902;-49
2021/11/13 00:26:09;;;;;;;58.53;35.90;;;6.70;99.90;;;;;;5052371;28;20454;-50
2021/11/13 00:28:37;;;;;;;57.27;34.67;;;6.70;99.90;;;;;;5052057;28;20422;-49
2021/11/13 00:31:03;;;;;;;62.40;38.57;;;6.80;99.90;;;;;;5052128;28;20930;-49
2021/11/13 00:33:30;;;;;;;54.77;34.40;;;6.20;99.90;;;;;;5051562;28;20788;-49
2021/11/13 00:35:57;;;;;;;56.97;34.27;;;6.70;99.90;;;;;;5052040;28;20428;-48
2021/11/13 00:38:24;;;;;;;60.77;37.30;;;6.70;99.90;;;;;;5051732;28;20857;-49
2021/11/13 00:40:50;;;;;;;51.53;33.23;;;6.40;99.90;;;;;;5054428;28;20444;-48
2021/11/13 00:43:20;;;;;;;56.20;32.47;;;6.40;99.90;;;;;;5072062;28;20789;-48
2021/11/13 00:45:47;;;;;;;59.47;35.70;;;6.50;99.90;;;;;;5071680;28;20758;-49
2021/11/13 00:48:14;;;;;;;53.37;33.07;;;6.20;99.90;;;;;;5076056;28;20833;-51
2021/11/13 00:50:44;;;;;;;55.30;35.23;;;6.60;99.90;;;;;;5072511;28;21113;-48
2021/11/13 00:53:11;;;;;;;54.97;32.63;;;6.30;99.90;;;;;;5072074;28;20433;-49
2021/11/13 00:55:38;;;;;;;50.90;33.47;;;6.80;99.90;;;;;;5071946;28;20410;-48
2021/11/13 00:58:04;;;;;;;51.80;33.40;;;6.50;99.90;;;;;;5071427;28;20454;-48
2021/11/13 01:00:33;;;;;;;54.60;33.00;;;6.50;99.90;;;;;;5071342;28;20460;-48
2021/11/13 01:03:00;;;;;;;56.00;34.00;;;6.60;99.90;;;;;;5071532;28;20839;-49
2021/11/13 01:05:27;;;;;;;52.93;33.13;;;6.50;99.90;;;;;;5071763;28;20438;-48
2021/11/13 01:07:54;;;;;;;58.57;34.73;;;5.80;99.90;;;;;;5071555;28;20418;-47
2021/11/13 01:10:22;;;;;;;59.40;35.50;;;6.50;99.90;;;;;;5070521;28;20974;-48
2021/11/13 01:12:50;;;;;;;50.77;32.70;;;6.50;99.90;;;;;;5071740;28;20432;-48
2021/11/13 01:15:18;;;;;;;53.60;33.67;;;6.30;99.90;;;;;;5071522;28;20469;-48
2021/11/13 01:17:52;;;;;;;47.83;32.50;;;6.40;99.90;;;;;;5071343;28;20774;-49
2021/11/13 01:20:20;;;;;;;53.63;32.70;;;6.50;99.90;;;;;;5071646;28;20737;-49
2021/11/13 01:22:47;;;;;;;61.37;35.93;;;6.50;99.90;;;;;;5055617;28;20469;-49
2021/11/13 01:25:14;;;;;;;58.67;34.60;;;6.40;99.90;;;;;;5050011;28;20459;-49
2021/11/13 01:27:41;;;;;;;51.43;32.50;;;6.40;99.90;;;;;;5051288;28;20789;-48
2021/11/13 01:30:10;;;;;;;51.13;32.20;;;6.50;99.90;;;;;;5051277;28;20444;-47
2021/11/13 01:32:37;;;;;;;53.93;32.40;;;6.40;99.90;;;;;;5051284;28;20415;-48
2021/11/13 01:35:07;;;;;;;54.20;33.27;;;6.60;99.90;;;;;;5051416;28;20906;-48
2021/11/13 01:37:34;;;;;;;56.00;32.70;;;6.40;99.90;;;;;;5051388;28;20435;-49
2021/11/13 01:40:01;;;;;;;54.03;32.07;;;6.50;99.90;;;;;;5051101;28;20828;-48
2021/11/13 01:42:30;;;;;;;54.37;32.87;;;6.70;99.90;;;;;;5067045;28;20974;-49
2021/11/13 01:44:57;;;;;;;51.60;32.67;;;6.40;99.90;;;;;;5071281;28;20473;-48
2021/11/13 01:47:23;;;;;;;55.30;33.43;;;6.50;99.90;;;;;;5074057;28;20454;-49
2021/11/13 01:49:51;;;;;;;56.73;32.63;;;6.60;99.90;;;;;;5074907;28;20406;-48
2021/11/13 01:52:20;;;;;;;53.63;31.43;;;6.40;99.90;;;;;;5075451;28;20414;-48
2021/11/13 01:54:47;;;;;;;52.00;33.20;;;6.50;99.90;;;;;;5075086;28;20429;-48
2021/11/13 01:57:20;;;;;;;51.47;32.13;;;6.70;99.90;;;;;;5075781;28;20403;-48
2021/11/13 01:59:48;;;;;;;60.67;35.03;;;6.20;99.90;;;;;;5075667;28;20415;-48
2021/11/13 02:02:15;;;;;;;57.90;34.10;;;6.20;99.90;;;;;;5075087;28;20414;-48
2021/11/13 02:04:42;;;;;;;50.73;32.37;;;6.40;99.90;;;;;;5075247;28;20426;-48
2021/11/13 02:07:09;;;;;;;58.07;34.57;;;6.90;99.90;;;;;;5078326;28;20449;-48
2021/11/13 02:09:38;;;;;;;48.27;31.53;;;6.70;99.90;;;;;;5073974;28;20454;-48
2021/11/13 02:12:05;;;;;;;52.50;32.27;;;6.90;99.90;;;;;;5075461;28;20435;-48
2021/11/13 02:14:33;;;;;;;52.00;31.90;;;6.90;99.90;;;;;;5075103;28;20447;-48
2021/11/13 02:16:59;;;;;;;51.40;32.10;;;6.30;99.90;;;;;;5074689;28;20407;-48
2021/11/13 02:19:26;;;;;;;56.40;33.70;;;6.60;99.90;;;;;;5074438;28;20442;-49
2021/11/13 02:22:00;;;;;;;54.13;31.50;;;6.70;99.90;;;;;;5065728;28;20438;-48
2021/11/13 02:24:27;;;;;;;57.83;32.23;;;6.70;99.90;;;;;;5054893;28;20440;-47
2021/11/13 02:26:54;;;;;;;52.50;33.30;;;6.90;99.90;;;;;;5054546;28;20489;-48
2021/11/13 02:29:20;;;;;;;52.40;32.77;;;6.90;99.90;;;;;;5054087;28;20438;-47
2021/11/13 02:31:47;;;;;;;50.60;32.40;;;6.80;99.90;;;;;;5054349;28;20419;-48
2021/11/13 02:34:14;;;;;;;50.80;31.53;;;7.00;99.90;;;;;;5054334;28;20456;-48
2021/11/13 02:36:41;;;;;;;49.63;32.07;;;6.90;99.90;;;;;;5054485;28;20928;-48
2021/11/13 02:39:12;;;;;;;52.27;32.40;;;6.70;99.90;;;;;;5054510;28;20567;-48
2021/11/13 02:41:42;;;;;;;51.80;33.37;;;6.60;99.90;;;;;;5063353;28;20820;-47
2021/11/13 02:44:11;;;;;;;47.47;31.67;;;6.70;99.90;;;;;;5074278;28;20458;-48
2021/11/13 02:46:38;;;;;;;47.83;31.00;;;6.70;99.90;;;;;;5073869;28;20562;-47
2021/11/13 02:49:06;;;;;;;56.37;32.53;;;6.70;99.90;;;;;;5074381;28;20804;-48
2021/11/13 02:51:33;;;;;;;51.97;33.07;;;6.80;99.90;;;;;;5074152;28;20427;-49
2021/11/13 02:54:00;;;;;;;54.53;33.13;;;6.80;99.90;;;;;;5074043;28;20429;-49
2021/11/13 02:56:28;;;;;;;45.50;30.90;;;6.60;99.90;;;;;;5074167;28;20436;-49
2021/11/13 02:58:55;;;;;;;52.40;31.30;;;6.70;99.90;;;;;;5073519;28;20436;-48
2021/11/13 03:01:24;;;;;;;52.40;32.33;;;6.60;99.90;;;;;;5073938;28;20481;-47
2021/11/13 03:03:52;;;;;;;51.20;31.47;;;6.70;99.90;;;;;;5073921;28;20933;-49
2021/11/13 03:06:22;;;;;;;47.93;30.10;;;6.30;99.90;;;;;;5073959;28;20471;-49
2021/11/13 03:08:50;;;;;;;52.63;30.33;;;6.70;99.90;;;;;;5073670;28;20457;-49
2021/11/13 03:11:18;;;;;;;50.83;31.27;;;6.60;99.90;;;;;;5073969;28;20435;-49
2021/11/13 03:13:48;;;;;;;48.10;30.30;;;6.70;99.90;;;;;;5072440;28;20782;-48
2021/11/13 03:16:16;;;;;;;48.63;30.77;;;6.60;99.90;;;;;;5073723;28;20468;-48
2021/11/13 03:18:43;;;;;;;52.23;31.43;;;6.60;99.90;;;;;;5073831;28;20435;-48
2021/11/13 03:21:11;;;;;;;50.57;31.30;;;6.70;99.90;;;;;;5071250;28;20418;-49
2021/11/13 03:23:45;;;;;;;51.40;30.93;;;6.70;99.90;;;;;;5055029;28;20454;-48
2021/11/13 03:26:16;;;;;;;47.97;30.70;;;6.60;99.90;;;;;;5056005;28;20440;-49
2021/11/13 03:28:48;;;;;;;53.43;31.20;;;6.50;99.90;;;;;;5053284;28;20424;-49
2021/11/13 03:31:15;;;;;;;45.13;29.47;;;6.60;99.90;;;;;;5053259;28;20501;-48
2021/11/13 03:33:42;;;;;;;44.70;29.47;;;6.60;99.90;;;;;;5053385;28;20468;-49
2021/11/13 03:36:10;;;;;;;42.83;29.73;;;6.30;99.90;;;;;;5053296;28;20441;-48
2021/11/13 03:38:38;;;;;;;49.03;29.87;;;6.40;99.90;;;;;;5053090;28;20510;-48
2021/11/13 03:41:06;;;;;;;48.70;31.10;;;6.10;99.90;;;;;;5057439;28;20422;-48
2021/11/13 03:43:34;;;;;;;51.40;28.83;;;6.70;99.90;;;;;;5073336;28;20451;-49
2021/11/13 03:46:03;;;;;;;48.77;30.10;;;6.60;99.90;;;;;;5072992;28;20435;-48
2021/11/13 03:48:30;;;;;;;47.27;29.67;;;6.80;99.90;;;;;;5072890;28;20401;-49
2021/11/13 03:50:56;;;;;;;48.57;30.30;;;6.80;99.90;;;;;;5073324;28;20435;-48
2021/11/13 03:53:23;;;;;;;46.53;29.73;;;6.40;99.90;;;;;;5072968;28;20478;-48
2021/11/13 03:55:50;;;;;;;45.20;29.17;;;6.70;99.90;;;;;;5073179;28;20410;-49
2021/11/13 03:58:18;;;;;;;49.63;30.57;;;6.60;99.90;;;;;;5072593;28;20967;-47
2021/11/13 04:00:45;;;;;;;48.83;29.40;;;6.50;99.90;;;;;;5072826;28;20770;-48
2021/11/13 04:03:13;;;;;;;48.73;33.10;;;6.40;99.90;;;;;;5072756;28;20969;-48
2021/11/13 04:05:41;;;;;;;50.63;30.80;;;6.60;99.90;;;;;;5072835;28;20409;-48
2021/11/13 04:08:08;;;;;;;42.87;29.40;;;6.30;99.90;;;;;;5071932;28;20445;-48
2021/11/13 04:10:34;;;;;;;43.37;28.03;;;6.70;99.90;;;;;;5072174;28;20529;-49
2021/11/13 04:13:01;;;;;;;47.83;29.13;;;6.50;99.90;;;;;;5072882;28;20410;-49
2021/11/13 04:15:28;;;;;;;46.50;28.07;;;6.80;99.90;;;;;;5072586;28;20406;-48
2021/11/13 04:17:55;;;;;;;46.30;29.37;;;6.40;99.90;;;;;;5072028;28;20438;-49
2021/11/13 04:20:24;;;;;;;44.70;29.03;;;6.80;99.90;;;;;;5072447;28;20411;-48
2021/11/13 04:22:51;;;;;;;50.37;28.57;;;6.40;99.90;;;;;;5056031;28;20434;-48
2021/11/13 04:25:19;;;;;;;48.43;30.63;;;6.30;99.90;;;;;;5052385;28;21011;-49
2021/11/13 04:27:50;;;;;;;50.63;29.83;;;6.80;99.90;;;;;;5052275;28;20831;-48
2021/11/13 04:30:18;;;;;;;44.00;28.70;;;6.70;99.90;;;;;;5052619;28;20487;-48
2021/11/13 04:32:46;;;;;;;47.13;30.10;;;6.60;99.90;;;;;;5051903;28;20518;-48
2021/11/13 04:35:17;;;;;;;42.33;28.47;;;6.80;99.90;;;;;;5052086;28;20519;-48
2021/11/13 04:37:48;;;;;;;53.00;29.53;;;6.50;99.90;;;;;;5051857;28;20414;-48
2021/11/13 04:40:16;;;;;;;41.87;27.77;;;6.50;99.90;;;;;;5052304;28;20440;-49
2021/11/13 04:42:43;;;;;;;42.73;29.03;;;6.30;99.90;;;;;;5073017;28;20422;-48
2021/11/13 04:45:09;;;;;;;44.23;28.70;;;6.60;99.90;;;;;;5072716;28;20457;-49
2021/11/13 04:47:37;;;;;;;44.60;29.10;;;6.00;99.90;;;;;;5071619;28;20476;-50
2021/11/13 04:50:05;;;;;;;49.70;30.20;;;6.90;99.90;;;;;;5071950;28;20516;-49
2021/11/13 04:52:32;;;;;;;43.80;27.30;;;6.60;99.90;;;;;;5072144;28;20812;-48
2021/11/13 04:54:59;;;;;;;43.43;27.80;;;6.20;99.90;;;;;;5071905;28;20430;-48
2021/11/13 04:57:26;;;;;;;46.50;30.33;;;6.30;99.90;;;;;;5072061;28;20765;-48
2021/11/13 04:59:53;;;;;;;43.53;29.73;;;6.50;99.90;;;;;;5071894;28;20406;-48
2021/11/13 05:02:22;;;;;;;48.20;29.63;;;6.10;99.90;;;;;;5071894;28;20402;-48
2021/11/13 05:04:53;;;;;;;42.77;28.20;;;6.80;99.90;;;;;;5071711;28;20462;-49
2021/11/13 05:07:21;;;;;;;41.27;28.03;;;6.10;99.90;;;;;;5071805;28;20471;-47
2021/11/13 05:09:48;;;;;;;40.63;27.17;;;6.60;99.90;;;;;;5071502;28;20466;-50
2021/11/13 05:12:16;;;;;;;43.43;27.57;;;6.20;99.90;;;;;;5071735;28;20415;-48
2021/11/13 05:14:43;;;;;;;45.90;30.67;;;6.60;99.90;;;;;;5071463;28;20738;-48
2021/11/13 05:17:10;;;;;;;46.83;27.30;;;6.80;99.90;;;;;;5071689;28;20403;-49
2021/11/13 05:19:37;;;;;;;45.23;27.87;;;6.30;99.90;;;;;;5071455;28;20401;-48
2021/11/13 05:22:04;;;;;;;41.73;27.20;;;6.50;99.90;;;;;;5061695;28;20907;-49
2021/11/13 05:24:31;;;;;;;39.57;27.20;;;6.70;99.90;;;;;;5051394;28;20442;-49
2021/11/13 05:26:57;;;;;;;43.17;29.07;;;6.80;99.90;;;;;;5051447;28;20447;-48
2021/11/13 05:29:25;;;;;;;42.13;28.07;;;6.60;99.90;;;;;;5051618;28;20413;-49
2021/11/13 05:31:52;;;;;;;43.90;27.50;;;6.20;99.90;;;;;;5051545;28;20441;-48
2021/11/13 05:34:19;;;;;;;41.77;27.10;;;6.20;99.90;;;;;;5051370;28;20459;-48
2021/11/13 05:36:48;;;;;;;37.10;25.80;;;6.70;99.90;;;;;;5052083;28;20815;-50
2021/11/13 05:39:16;;;;;;;38.77;25.40;;;6.80;99.90;;;;;;5051270;28;20797;-50
2021/11/13 05:41:42;;;;;;;41.83;26.47;;;6.70;99.90;;;;;;5060716;28;20451;-50
2021/11/13 05:44:09;;;;;;;42.17;27.20;;;6.80;99.90;;;;;;5071544;28;20432;-51
2021/11/13 05:46:37;;;;;;;43.17;25.20;;;6.80;99.90;;;;;;5071479;28;20453;-50
2021/11/13 05:49:04;;;;;;;42.07;27.03;;;6.60;99.90;;;;;;5071111;28;20917;-49
2021/11/13 05:51:31;;;;;;;37.30;25.13;;;6.40;99.90;;;;;;5071478;28;20409;-49
2021/11/13 05:53:57;;;;;;;43.37;25.50;;;6.50;99.90;;;;;;5071354;28;20429;-49
2021/11/13 05:56:25;;;;;;;43.13;27.60;;;6.90;99.90;;;;;;5070992;28;20420;-49
2021/11/13 05:58:51;;;;;;;38.10;26.80;;;6.90;99.90;;;;;;5070890;28;20517;-49
2021/11/13 06:01:18;;;;;;;39.57;26.47;;;6.90;99.90;;;;;;5075026;28;20428;-51
2021/11/13 06:03:46;;;;;;;38.50;26.20;;;6.30;99.90;;;;;;5071345;28;20429;-50
2021/11/13 06:06:15;;;;;;;39.03;25.60;;;6.90;99.90;;;;;;5071303;28;20413;-51
2021/11/13 06:08:42;;;;;;;38.63;26.60;;;6.40;99.90;;;;;;5070756;28;20467;-50
2021/11/13 06:11:09;;;;;;;37.83;25.37;;;6.70;99.90;;;;;;5071204;28;20497;-51
2021/11/13 06:13:36;;;;;;;46.03;25.40;;;6.90;99.90;;;;;;5071212;28;20524;-50
2021/11/13 06:16:03;;;;;;;39.30;26.50;;;6.20;99.90;;;;;;5071053;28;20415;-50
2021/11/13 06:18:32;;;;;;;46.87;26.77;;;6.40;99.90;;;;;;5070940;28;20484;-51
2021/11/13 06:21:00;;;;;;;39.50;24.90;;;6.80;99.90;;;;;;5070171;28;20471;-51
2021/11/13 06:23:26;;;;;;;42.80;25.80;;;6.70;99.90;;;;;;5050907;28;20854;-51
2021/11/13 06:25:53;;;;;;;45.37;26.90;;;6.70;99.90;;;;;;5050946;28;20418;-51
2021/11/13 06:28:20;;;;;;;41.53;27.00;;;7.10;99.90;;;;;;5050570;28;20458;-51
2021/11/13 06:30:46;;;;;;;43.57;26.00;;;6.30;99.90;;;;;;5051175;28;20435;-51
2021/11/13 06:33:13;;;;;;;38.53;24.90;;;6.90;99.90;;;;;;5053307;28;20436;-52
2021/11/13 06:35:40;;;;;;;39.47;25.00;;;6.90;99.90;;;;;;5054579;28;20429;-50
2021/11/13 06:38:08;;;;;;;38.20;24.40;;;6.40;99.90;;;;;;5054166;28;20793;-51
2021/11/13 06:40:35;;;;;;;41.37;25.40;;;6.80;99.90;;;;;;5054612;28;20426;-50
2021/11/13 06:43:02;;;;;;;39.40;27.03;;;6.60;99.90;;;;;;5074257;28;20450;-50
2021/11/13 06:45:32;;;;;;;43.97;27.07;;;6.90;99.90;;;;;;5074345;28;20459;-51
2021/11/13 06:47:59;;;;;;;37.30;26.50;;;6.80;99.90;;;;;;5073803;28;20475;-51
2021/11/13 06:50:25;;;;;;;38.43;25.23;;;6.70;99.90;;;;;;5072762;28;20423;-50
2021/11/13 06:52:52;;;;;;;40.83;26.30;;;7.00;99.90;;;;;;5074258;28;20405;-50
2021/11/13 06:55:20;;;;;;;40.93;25.23;;;6.80;99.90;;;;;;5073984;28;20477;-51
2021/11/13 06:57:47;;;;;;;45.37;26.57;;;6.60;99.90;;;;;;5073666;28;20497;-51
2021/11/13 07:00:17;;;;;;;44.33;26.97;;;6.90;99.90;;;;;;5074093;28;20410;-51
2021/11/13 07:02:44;;;;;;;44.20;28.00;;;6.80;99.90;;;;;;5074210;28;20418;-51
2021/11/13 07:05:17;;;;;;;41.27;26.27;;;6.80;99.90;;;;;;5073818;28;20794;-50
2021/11/13 07:07:44;;;;;;;43.30;24.50;;;6.80;99.90;;;;;;5073514;28;20478;-51
2021/11/13 07:10:13;;;;;;;42.43;26.27;;;6.70;99.90;;;;;;5074037;28;20871;-51
2021/11/13 07:12:42;;;;;;;35.10;24.27;;;6.80;99.90;;;;;;5073801;28;20414;-50
2021/11/13 07:15:10;;;;;;;38.83;25.30;;;6.80;99.90;;;;;;5073521;28;20422;-51
2021/11/13 07:17:36;;;;;;;40.30;26.40;;;6.90;99.90;;;;;;5074232;28;20402;-50
2021/11/13 07:20:04;;;;;;;38.80;25.57;;;6.80;99.90;;;;;;5075453;28;20910;-50
2021/11/13 07:22:31;;;;;;;43.17;26.20;;;7.10;99.90;;;;;;5060303;28;20864;-51
2021/11/13 07:24:58;;;;;;;38.30;24.20;;;7.10;99.90;;;;;;5053127;28;20810;-50
2021/11/13 07:27:25;;;;;;;38.40;25.63;;;6.80;99.90;;;;;;5053238;28;20445;-50
2021/11/13 07:30:00;;;;;;;33.63;24.10;;;6.50;99.90;;;;;;5053154;28;20407;-50
2021/11/13 07:32:28;;;;;;;35.47;23.50;;;7.00;99.90;;;;;;5053514;28;20416;-50
2021/11/13 07:34:55;;;;;;;29.63;21.53;;;7.00;99.90;;;;;;5053288;28;20464;-50
2021/11/13 07:37:22;;;;;;;34.17;22.57;;;6.50;99.90;;;;;;5053231;28;20431;-50
2021/11/13 07:39:48;;;;;;;38.33;24.27;;;7.20;99.90;;;;;;5052921;28;20440;-50
2021/11/13 07:42:15;;;;;;;34.93;23.03;;;7.30;99.90;;;;;;5066822;28;20454;-50
2021/11/13 07:44:41;;;;;;;33.70;23.60;;;7.00;99.90;;;;;;5073049;28;20422;-50
2021/11/13 07:47:10;;;;;;;31.70;22.20;;;7.30;99.90;;;;;;5073017;28;20415;-50
2021/11/13 07:49:36;;;;;;;39.60;24.67;;;7.20;99.90;;;;;;5072166;28;20458;-50
2021/11/13 07:52:04;;;;;;;35.17;22.80;;;7.10;99.90;;;;;;5072923;28;20889;-49
2021/11/13 07:54:31;;;;;;;34.27;22.20;;;7.30;99.90;;;;;;5072878;28;20456;-50
2021/11/13 07:56:57;;;;;;;38.00;24.83;;;7.50;99.90;;;;;;5072869;28;20431;-49
2021/11/13 07:59:24;;;;;;;35.87;23.60;;;7.40;99.90;;;;;;5073361;28;20442;-48
2021/11/13 08:01:50;;;;;;;32.73;21.90;;;7.00;99.90;;;;;;5072694;28;20414;-48
2021/11/13 08:04:18;;;;;;;36.00;23.47;;;7.30;99.90;;;;;;5072741;28;20455;-48
2021/11/13 08:06:45;;;;;;;36.03;23.47;;;7.30;99.90;;;;;;5075841;28;20411;-48
2021/11/13 08:09:12;;;;;;;35.50;24.80;;;7.50;99.90;;;;;;5072286;28;20487;-49
2021/11/13 08:11:38;;;;;;;40.13;24.27;;;7.40;99.90;;;;;;5072490;28;20891;-49
2021/11/13 08:14:06;;;;;;;33.50;23.10;;;7.40;99.90;;;;;;5072410;28;20982;-49
2021/11/13 08:16:32;;;;;;;38.03;22.57;;;7.60;99.90;;;;;;5072405;28;20439;-49
2021/11/13 08:18:59;;;;;;;36.40;24.00;;;7.30;99.90;;;;;;5072163;28;20433;-48
2021/11/13 08:21:27;;;;;;;35.13;21.87;;;7.80;99.90;;;;;;5067485;28;20500;-49
2021/11/13 08:23:54;;;;;;;35.67;23.40;;;7.10;99.90;;;;;;5052246;28;20456;-48
2021/11/13 08:26:21;;;;;;;34.83;22.27;;;7.60;99.90;;;;;;5051976;28;20928;-48
2021/11/13 08:28:48;;;;;;;37.40;23.57;;;7.90;99.90;;;;;;5051842;28;20509;-48
2021/11/13 08:31:15;;;;;;;35.50;23.80;;;7.40;99.90;;;;;;5052059;28;20419;-48
2021/11/13 08:33:41;;;;;;;34.93;22.77;;;7.60;99.90;;;;;;5052078;28;20558;-49
2021/11/13 08:36:08;;;;;;;32.20;23.37;;;7.30;99.90;;;;;;5065175;28;20476;-48
2021/11/13 08:38:36;;;;;;;37.93;25.07;;;7.80;99.90;;;;;;5072727;28;20414;-48
2021/11/13 08:41:03;;;;;;;36.30;22.67;;;7.10;99.90;;;;;;5071891;28;20429;-48
2021/11/13 08:43:30;;;;;;;31.17;22.43;;;7.50;99.90;;;;;;5071900;28;20435;-48
2021/11/13 08:45:57;;;;;;;33.50;23.20;;;7.70;99.90;;;;;;5071715;28;20404;-49
2021/11/13 08:48:23;;;;;;;36.83;23.20;;;7.40;99.90;;;;;;5071050;28;20447;-48
2021/11/13 08:50:50;;;;;;;33.10;22.53;;;7.50;99.90;;;;;;5071724;28;20436;-48
2021/11/13 08:53:17;;;;;;;34.40;24.03;;;7.70;99.90;;;;;;5071413;28;20457;-48
2021/11/13 08:55:46;;;;;;;34.70;23.47;;;7.50;99.90;;;;;;5071378;28;20503;-48
2021/11/13 08:58:13;;;;;;;35.10;23.80;;;7.40;99.90;;;;;;5071232;28;20442;-48
2021/11/13 09:00:44;;;;;;;35.67;23.73;;;7.80;99.90;;;;;;5071763;28;20432;-48
2021/11/13 09:03:13;;;;;;;34.90;23.23;;;7.40;99.90;;;;;;5071775;28;20440;-49
2021/11/13 09:05:41;;;;;;;35.50;24.33;;;7.90;99.90;;;;;;5071549;28;20410;-48
2021/11/13 09:08:09;;;;;;;34.70;24.07;;;7.60;99.90;;;;;;5071021;28;20483;-48
2021/11/13 09:10:38;;;;;;;34.87;24.60;;;7.60;99.90;;;;;;5071781;28;20695;-48
2021/11/13 09:13:09;;;;;;;33.60;24.37;;;7.90;99.90;;;;;;5071457;28;20919;-48
2021/11/13 09:15:38;;;;;;;33.97;23.67;;;8.20;99.90;;;;;;5071403;28;20414;-48
2021/11/13 09:18:06;;;;;;;31.90;21.80;;;8.10;99.90;;;;;;5070993;28;20881;-49
2021/11/13 09:20:33;;;;;;;35.57;25.70;;;7.90;99.90;;;;;;5071266;28;20760;-49
2021/11/13 09:22:59;;;;;;;31.93;22.00;;;7.90;99.90;;;;;;5053368;28;20474;-50
2021/11/13 09:25:26;;;;;;;44.00;23.40;;;8.40;99.90;;;;;;5051273;28;20439;-48
2021/11/13 09:27:53;;;;;;;30.27;21.63;;;8.20;99.90;;;;;;5050828;28;20468;-48
2021/11/13 09:30:24;;;;;;;30.17;21.10;;;8.20;99.90;;;;;;5051525;28;20434;-48
2021/11/13 09:32:51;;;;;;;33.07;21.57;;;8.30;99.90;;;;;;5051393;28;20755;-48
2021/11/13 09:35:19;;;;;;;34.63;21.53;;;7.90;99.90;;;;;;5051446;28;20423;-48
2021/11/13 09:37:46;;;;;;;28.93;22.00;;;8.00;99.90;;;;;;5050922;28;20405;-48
2021/11/13 09:40:16;;;;;;;40.50;29.50;;;8.40;99.90;;;;;;5051233;28;20526;-48
2021/11/13 09:42:44;;;;;;;33.57;23.83;;;7.90;99.90;;;;;;5068743;28;20961;-49
2021/11/13 09:45:12;;;;;;;32.50;21.83;;;8.70;99.90;;;;;;5071295;28;20782;-48
2021/11/13 09:47:41;;;;;;;29.10;22.10;;;8.70;99.90;;;;;;5070817;28;20440;-49
2021/11/13 09:50:09;;;;;;;29.10;21.00;;;8.70;99.90;;;;;;5071171;28;20533;-48
2021/11/13 09:52:36;;;;;;;30.07;21.77;;;8.60;99.90;;;;;;5070586;28;20507;-48
2021/11/13 09:55:04;;;;;;;31.50;21.40;;;8.80;99.90;;;;;;5073157;28;20464;-48
2021/11/13 09:57:31;;;;;;;25.67;19.00;;;8.60;99.90;;;;;;5072272;28;20436;-48
2021/11/13 09:59:57;;;;;;;28.60;20.30;;;8.90;99.90;;;;;;5070268;28;20419;-49
2021/11/13 10:02:24;;;;;;;26.33;20.30;;;9.00;99.90;;;;;;5071015;28;20403;-48
2021/11/13 10:04:52;;;;;;;31.60;20.80;;;9.00;99.90;;;;;;5070962;28;20500;-49
2021/11/13 10:07:19;;;;;;;27.80;19.23;;;8.70;99.90;;;;;;5071998;28;20482;-48
2021/11/13 10:09:49;;;;;;;28.33;19.70;;;8.90;99.90;;;;;;5073825;28;20842;-48
2021/11/13 10:12:16;;;;;;;27.43;18.47;;;8.80;99.90;;;;;;5074489;28;20402;-48
2021/11/13 10:14:43;;;;;;;26.03;19.63;;;8.70;99.90;;;;;;5074448;28;20453;-48
2021/11/13 10:17:23;;;;;;;27.07;19.37;;;8.70;99.90;;;;;;5073017;28;20777;-49
2021/11/13 10:19:50;;;;;;;25.07;19.27;;;8.60;99.90;;;;;;5074604;28;20403;-48
2021/11/13 10:22:19;;;;;;;28.00;18.30;;;8.50;99.90;;;;;;5062710;28;20435;-47
2021/11/13 10:24:48;;;;;;;23.87;18.77;;;8.70;99.90;;;;;;5054385;28;20462;-48
2021/11/13 10:27:16;;;;;;;28.03;19.67;;;8.70;99.90;;;;;;5054052;28;20401;-48
2021/11/13 10:29:46;;;;;;;25.43;19.33;;;8.70;99.90;;;;;;5054029;28;20985;-48
2021/11/13 10:32:15;;;;;;;30.87;18.50;;;8.80;99.90;;;;;;5054305;28;20750;-49
2021/11/13 10:34:46;;;;;;;29.03;20.10;;;8.70;99.90;;;;;;5054329;28;20810;-48
2021/11/13 10:37:18;;;;;;;28.27;18.33;;;8.50;99.90;;;;;;5054232;28;20445;-48
2021/11/13 10:39:46;;;;;;;28.03;21.03;;;8.70;99.90;;;;;;5053689;28;20397;-48
2021/11/13 10:42:15;;;;;;;29.47;20.13;;;8.50;99.90;;;;;;5067637;28;20449;-48
2021/11/13 10:44:48;;;;;;;29.50;21.10;;;8.70;99.90;;;;;;5073952;28;20473;-49
2021/11/13 10:47:17;;;;;;;26.00;18.40;;;8.80;99.90;;;;;;5073792;28;20966;-48
2021/11/13 10:49:45;;;;;;;25.80;19.60;;;8.70;99.90;;;;;;5073147;28;20471;-49
2021/11/13 10:52:13;;;;;;;27.93;20.23;;;8.80;99.90;;;;;;5073355;28;20436;-49
2021/11/13 10:54:44;;;;;;;26.50;19.10;;;8.80;99.90;;;;;;5073587;28;20829;-48
2021/11/13 10:57:11;;;;;;;27.73;19.90;;;8.90;99.90;;;;;;5073492;28;20833;-48
2021/11/13 10:59:40;;;;;;;26.77;18.23;;;8.70;99.90;;;;;;5073511;28;20438;-48
2021/11/13 11:02:09;;;;;;;26.80;19.50;;;9.10;99.90;;;;;;5073910;28;20443;-49
2021/11/13 11:04:39;;;;;;;27.90;20.47;;;9.10;99.90;;;;;;5073874;28;20451;-49
2021/11/13 11:07:09;;;;;;;25.57;18.50;;;9.20;99.90;;;;;;5073966;28;20996;-47
2021/11/13 11:09:38;;;;;;;25.60;19.60;;;9.30;99.90;;;;;;5072836;28;20456;-49
2021/11/13 11:12:10;;;;;;;23.20;19.57;;;9.70;99.90;;;;;;5073427;28;20428;-48
2021/11/13 11:14:40;;;;;;;34.80;21.00;;;9.40;99.90;;;;;;5074861;28;20507;-49
2021/11/13 11:17:08;;;;;;;28.47;20.97;;;9.00;99.90;;;;;;5073405;28;20425;-49
2021/11/13 11:19:37;;;;;;;24.10;19.10;;;9.50;99.90;;;;;;5072487;28;20425;-48
2021/11/13 11:22:07;;;;;;;25.13;19.03;;;9.40;99.90;;;;;;5063103;28;20439;-48
2021/11/13 11:24:37;;;;;;;25.47;19.70;;;9.80;99.90;;;;;;5052477;28;20478;-48
2021/11/13 11:27:09;;;;;;;24.27;18.17;;;9.70;99.90;;;;;;5053026;28;20437;-49
2021/11/13 11:29:38;;;;;;;26.83;19.20;;;9.70;99.90;;;;;;5053247;28;20445;-49
2021/11/13 11:32:09;;;;;;;29.67;20.40;;;9.70;99.90;;;;;;5052453;28;20896;-49
2021/11/13 11:34:38;;;;;;;24.87;19.77;;;9.80;99.90;;;;;;5052685;28;20482;-48
2021/11/13 11:37:15;;;;;;;30.70;21.27;;;9.50;99.90;;;;;;5053061;28;20409;-50
2021/11/13 11:39:43;;;;;;;24.23;18.50;;;9.90;99.90;;;;;;5052472;28;20444;-49
2021/11/13 11:42:12;;;;;;;26.20;20.67;;;9.90;99.90;;;;;;5065566;28;20909;-48
2021/11/13 11:44:41;;;;;;;25.40;19.33;;;9.90;99.90;;;;;;5072577;28;20453;-49
2021/11/13 11:47:09;;;;;;;26.27;18.63;;;9.80;99.90;;;;;;5072374;28;20417;-49
2021/11/13 11:49:39;;;;;;;29.50;19.70;;;10.00;99.90;;;;;;5072572;28;20535;-49
2021/11/13 11:52:06;;;;;;;28.97;19.63;;;10.20;99.90;;;;;;5072271;28;20407;-49
2021/11/13 11:54:33;;;;;;;35.03;25.20;;;9.90;99.90;;;;;;5071916;28;20556;-50
2021/11/13 11:56:59;;;;;;;33.30;24.07;;;9.50;99.90;;;;;;5072464;28;20864;-48
2021/11/13 11:59:29;;;;;;;28.87;20.97;;;9.50;99.90;;;;;;5072095;28;20434;-48
2021/11/13 12:02:10;;;;;;;26.70;19.70;;;9.90;99.90;;;;;;5071950;28;20441;-49
2021/11/13 12:04:37;;;;;;;27.30;19.43;;;9.80;99.90;;;;;;5072193;28;20420;-50
2021/11/13 12:07:07;;;;;;;27.90;20.70;;;10.00;99.90;;;;;;5072253;28;20406;-48
2021/11/13 12:09:34;;;;;;;27.63;21.03;;;9.90;99.90;;;;;;5070997;28;20463;-48
2021/11/13 12:12:17;;;;;;;23.93;19.27;;;9.90;99.90;;;;;;5071644;28;20922;-49
2021/11/13 12:14:45;;;;;;;25.33;19.27;;;9.90;99.90;;;;;;5071750;28;20445;-50
2021/11/13 12:17:35;;;;;;;27.40;18.17;;;9.90;99.90;;;;;;5071564;28;20528;-49
2021/11/13 12:20:29;;;;;;;24.07;18.63;;;9.90;99.90;;;;;;5071820;28;20839;-49
2021/11/13 12:23:08;;;;;;;26.33;19.17;;;9.80;99.90;;;;;;5054274;28;20438;-49
2021/11/13 12:25:36;;;;;;;25.03;17.97;;;9.80;99.90;;;;;;5051634;28;20433;-48
2021/11/13 12:28:06;;;;;;;27.43;19.33;;;10.10;99.90;;;;;;5050971;28;20811;-48
2021/11/13 12:30:46;;;;;;;25.90;18.10;;;9.70;99.90;;;;;;5051333;28;20486;-48
2021/11/13 12:33:54;;;;;;;27.07;19.57;;;10.00;99.90;;;;;;5054678;28;20746;-48
2021/11/13 12:36:24;;;;;;;29.30;19.20;;;10.30;99.90;;;;;;5051460;28;20420;-49
2021/11/13 12:38:58;;;;;;;24.43;17.50;;;9.40;99.90;;;;;;5051122;28;20492;-49
2021/11/13 12:41:27;;;;;;;25.50;18.60;;;9.70;99.90;;;;;;5058691;28;20415;-48